sensor_id;sensor_type;location;lat;lon;timestamp;P1;durP1;ratioP1;P2;durP2;ratioP2
13897;SDS011;7019;50.766;4.474;2022-11-15T00:02:17;30.37;;;22.37;;
13897;SDS011;7019;50.766;4.474;2022-11-15T00:04:45;28.87;;;21.13;;
13897;SDS011;7019;50.766;4.474;2022-11-15T00:07:12;27.07;;;20.37;;
13897;SDS011;7019;50.766;4.474;2022-11-15T00:09:39;28.40;;;20.03;;
13897;SDS011;7019;50.766;4.474;2022-11-15T00:12:06;30.40;;;21.10;;
13897;SDS011;7019;50.766;4.474;2022-11-15T00:14:33;29.93;;;20.70;;
13897;SDS011;7019;50.766;4.474;2022-11-15T00:17:00;28.33;;;20.80;;
13897;SDS011;7019;50.766;4.474;2022-11-15T00:19:27;26.30;;;21.10;;
13897;SDS011;7019;50.766;4.474;2022-11-15T00:21:56;28.07;;;20.50;;
13897;SDS011;7019;50.766;4.474;2022-11-15T00:24:23;35.50;;;22.10;;
13897;SDS011;7019;50.766;4.474;2022-11-15T00:26:50;33.83;;;22.03;;
13897;SDS011;7019;50.766;4.474;2022-11-15T00:29:17;27.40;;;20.53;;
13897;SDS011;7019;50.766;4.474;2022-11-15T00:31:44;27.70;;;20.77;;
13897;SDS011;7019;50.766;4.474;2022-11-15T00:34:11;29.90;;;21.77;;
13897;SDS011;7019;50.766;4.474;2022-11-15T00:36:38;28.17;;;21.43;;
13897;SDS011;7019;50.766;4.474;2022-11-15T00:39:07;33.73;;;22.33;;
13897;SDS011;7019;50.766;4.474;2022-11-15T00:41:34;31.67;;;21.80;;
13897;SDS011;7019;50.766;4.474;2022-11-15T00:44:01;28.37;;;21.93;;
13897;SDS011;7019;50.766;4.474;2022-11-15T00:46:28;36.57;;;22.87;;
13897;SDS011;7019;50.766;4.474;2022-11-15T00:48:55;34.87;;;23.27;;
13897;SDS011;7019;50.766;4.474;2022-11-15T00:51:22;36.47;;;23.33;;
13897;SDS011;7019;50.766;4.474;2022-11-15T00:53:49;31.97;;;22.03;;
13897;SDS011;7019;50.766;4.474;2022-11-15T00:56:18;32.23;;;22.73;;
13897;SDS011;7019;50.766;4.474;2022-11-15T00:58:45;34.47;;;23.90;;
13897;SDS011;7019;50.766;4.474;2022-11-15T01:01:12;33.13;;;22.80;;
13897;SDS011;7019;50.766;4.474;2022-11-15T01:03:40;38.63;;;23.93;;
13897;SDS011;7019;50.766;4.474;2022-11-15T01:06:08;34.37;;;23.93;;
13897;SDS011;7019;50.766;4.474;2022-11-15T01:08:37;38.33;;;25.50;;
13897;SDS011;7019;50.766;4.474;2022-11-15T01:11:05;46.53;;;26.00;;
13897;SDS011;7019;50.766;4.474;2022-11-15T01:13:35;34.27;;;23.23;;
13897;SDS011;7019;50.766;4.474;2022-11-15T01:16:07;43.13;;;25.83;;
13897;SDS011;7019;50.766;4.474;2022-11-15T01:18:35;39.67;;;24.20;;
13897;SDS011;7019;50.766;4.474;2022-11-15T01:21:06;39.17;;;24.83;;
13897;SDS011;7019;50.766;4.474;2022-11-15T01:23:34;38.50;;;25.00;;
13897;SDS011;7019;50.766;4.474;2022-11-15T01:26:02;38.70;;;28.03;;
13897;SDS011;7019;50.766;4.474;2022-11-15T01:28:31;40.03;;;26.50;;
13897;SDS011;7019;50.766;4.474;2022-11-15T01:31:01;43.60;;;27.03;;
13897;SDS011;7019;50.766;4.474;2022-11-15T01:33:29;38.50;;;26.47;;
13897;SDS011;7019;50.766;4.474;2022-11-15T01:35:56;40.83;;;26.33;;
13897;SDS011;7019;50.766;4.474;2022-11-15T01:38:23;40.57;;;25.80;;
13897;SDS011;7019;50.766;4.474;2022-11-15T01:40:50;36.43;;;25.60;;
13897;SDS011;7019;50.766;4.474;2022-11-15T01:43:18;36.17;;;24.97;;
13897;SDS011;7019;50.766;4.474;2022-11-15T01:45:50;32.37;;;23.20;;
13897;SDS011;7019;50.766;4.474;2022-11-15T01:48:23;33.47;;;23.20;;
13897;SDS011;7019;50.766;4.474;2022-11-15T01:50:54;37.83;;;24.57;;
13897;SDS011;7019;50.766;4.474;2022-11-15T01:53:22;30.87;;;22.53;;
13897;SDS011;7019;50.766;4.474;2022-11-15T01:55:50;32.53;;;23.17;;
13897;SDS011;7019;50.766;4.474;2022-11-15T01:58:18;31.43;;;24.03;;
13897;SDS011;7019;50.766;4.474;2022-11-15T02:00:45;25.47;;;21.07;;
13897;SDS011;7019;50.766;4.474;2022-11-15T02:03:14;31.27;;;20.90;;
13897;SDS011;7019;50.766;4.474;2022-11-15T02:05:43;27.30;;;20.87;;
13897;SDS011;7019;50.766;4.474;2022-11-15T02:08:10;31.80;;;21.07;;
13897;SDS011;7019;50.766;4.474;2022-11-15T02:10:45;28.17;;;20.80;;
13897;SDS011;7019;50.766;4.474;2022-11-15T02:13:13;28.13;;;20.40;;
13897;SDS011;7019;50.766;4.474;2022-11-15T02:15:44;33.13;;;21.60;;
13897;SDS011;7019;50.766;4.474;2022-11-15T02:18:17;28.10;;;20.70;;
13897;SDS011;7019;50.766;4.474;2022-11-15T02:20:55;30.60;;;21.73;;
13897;SDS011;7019;50.766;4.474;2022-11-15T02:23:47;30.00;;;20.97;;
13897;SDS011;7019;50.766;4.474;2022-11-15T02:29:30;29.43;;;20.63;;
13897;SDS011;7019;50.766;4.474;2022-11-15T02:32:10;30.20;;;21.60;;
13897;SDS011;7019;50.766;4.474;2022-11-15T02:34:45;36.73;;;22.77;;
13897;SDS011;7019;50.766;4.474;2022-11-15T02:37:19;35.13;;;22.07;;
13897;SDS011;7019;50.766;4.474;2022-11-15T02:39:56;33.37;;;22.57;;
13897;SDS011;7019;50.766;4.474;2022-11-15T02:42:28;31.27;;;22.07;;
13897;SDS011;7019;50.766;4.474;2022-11-15T02:45:18;32.47;;;23.23;;
13897;SDS011;7019;50.766;4.474;2022-11-15T02:47:51;34.07;;;22.93;;
13897;SDS011;7019;50.766;4.474;2022-11-15T02:50:24;34.63;;;23.73;;
13897;SDS011;7019;50.766;4.474;2022-11-15T02:52:53;35.83;;;22.47;;
13897;SDS011;7019;50.766;4.474;2022-11-15T02:55:25;37.23;;;24.27;;
13897;SDS011;7019;50.766;4.474;2022-11-15T02:57:57;33.43;;;23.60;;
13897;SDS011;7019;50.766;4.474;2022-11-15T03:00:46;34.10;;;23.70;;
13897;SDS011;7019;50.766;4.474;2022-11-15T03:03:22;36.20;;;23.73;;
13897;SDS011;7019;50.766;4.474;2022-11-15T03:06:01;35.97;;;22.97;;
13897;SDS011;7019;50.766;4.474;2022-11-15T03:08:37;31.27;;;21.77;;
13897;SDS011;7019;50.766;4.474;2022-11-15T03:11:14;33.13;;;22.33;;
13897;SDS011;7019;50.766;4.474;2022-11-15T03:13:44;34.63;;;22.10;;
13897;SDS011;7019;50.766;4.474;2022-11-15T03:16:19;31.17;;;20.43;;
13897;SDS011;7019;50.766;4.474;2022-11-15T03:18:54;32.03;;;19.53;;
13897;SDS011;7019;50.766;4.474;2022-11-15T03:21:24;25.67;;;19.87;;
13897;SDS011;7019;50.766;4.474;2022-11-15T03:23:53;27.80;;;19.33;;
13897;SDS011;7019;50.766;4.474;2022-11-15T03:26:21;26.73;;;19.97;;
13897;SDS011;7019;50.766;4.474;2022-11-15T03:28:52;27.37;;;19.07;;
13897;SDS011;7019;50.766;4.474;2022-11-15T03:31:21;25.07;;;18.13;;
13897;SDS011;7019;50.766;4.474;2022-11-15T03:34:13;25.50;;;17.63;;
13897;SDS011;7019;50.766;4.474;2022-11-15T03:36:47;26.23;;;18.40;;
13897;SDS011;7019;50.766;4.474;2022-11-15T03:39:15;27.73;;;18.10;;
13897;SDS011;7019;50.766;4.474;2022-11-15T03:41:43;27.23;;;18.37;;
13897;SDS011;7019;50.766;4.474;2022-11-15T03:44:19;20.23;;;16.00;;
13897;SDS011;7019;50.766;4.474;2022-11-15T03:46:55;24.70;;;15.70;;
13897;SDS011;7019;50.766;4.474;2022-11-15T03:49:29;22.00;;;14.63;;
13897;SDS011;7019;50.766;4.474;2022-11-15T03:51:59;25.13;;;15.10;;
13897;SDS011;7019;50.766;4.474;2022-11-15T03:54:28;27.83;;;14.77;;
13897;SDS011;7019;50.766;4.474;2022-11-15T03:56:55;22.17;;;15.53;;
13897;SDS011;7019;50.766;4.474;2022-11-15T03:59:22;23.57;;;15.47;;
13897;SDS011;7019;50.766;4.474;2022-11-15T04:01:49;20.80;;;14.60;;
13897;SDS011;7019;50.766;4.474;2022-11-15T04:04:16;22.53;;;14.50;;
13897;SDS011;7019;50.766;4.474;2022-11-15T04:06:45;20.50;;;14.37;;
13897;SDS011;7019;50.766;4.474;2022-11-15T04:09:12;20.43;;;14.10;;
13897;SDS011;7019;50.766;4.474;2022-11-15T04:11:39;18.43;;;13.33;;
13897;SDS011;7019;50.766;4.474;2022-11-15T04:14:06;21.57;;;13.17;;
13897;SDS011;7019;50.766;4.474;2022-11-15T04:16:33;18.27;;;13.20;;
13897;SDS011;7019;50.766;4.474;2022-11-15T04:19:00;15.40;;;11.57;;
13897;SDS011;7019;50.766;4.474;2022-11-15T04:21:46;17.03;;;11.20;;
13897;SDS011;7019;50.766;4.474;2022-11-15T04:24:30;13.53;;;11.00;;
13897;SDS011;7019;50.766;4.474;2022-11-15T04:26:57;17.27;;;10.00;;
13897;SDS011;7019;50.766;4.474;2022-11-15T04:29:25;15.50;;;9.13;;
13897;SDS011;7019;50.766;4.474;2022-11-15T04:32:01;14.27;;;9.60;;
13897;SDS011;7019;50.766;4.474;2022-11-15T04:34:28;15.43;;;9.60;;
13897;SDS011;7019;50.766;4.474;2022-11-15T04:36:57;13.77;;;8.63;;
13897;SDS011;7019;50.766;4.474;2022-11-15T04:39:41;17.07;;;8.63;;
13897;SDS011;7019;50.766;4.474;2022-11-15T04:42:09;13.93;;;8.77;;
13897;SDS011;7019;50.766;4.474;2022-11-15T04:44:36;17.40;;;8.17;;
13897;SDS011;7019;50.766;4.474;2022-11-15T04:47:04;11.77;;;7.67;;
13897;SDS011;7019;50.766;4.474;2022-11-15T04:49:31;21.17;;;8.37;;
13897;SDS011;7019;50.766;4.474;2022-11-15T04:51:59;15.13;;;8.43;;
13897;SDS011;7019;50.766;4.474;2022-11-15T04:54:26;12.70;;;8.03;;
13897;SDS011;7019;50.766;4.474;2022-11-15T04:56:53;12.00;;;7.93;;
13897;SDS011;7019;50.766;4.474;2022-11-15T04:59:20;10.80;;;7.60;;
13897;SDS011;7019;50.766;4.474;2022-11-15T05:01:47;12.43;;;7.87;;
13897;SDS011;7019;50.766;4.474;2022-11-15T05:04:14;13.13;;;8.07;;
13897;SDS011;7019;50.766;4.474;2022-11-15T05:06:47;13.63;;;7.90;;
13897;SDS011;7019;50.766;4.474;2022-11-15T05:09:16;12.17;;;7.30;;
13897;SDS011;7019;50.766;4.474;2022-11-15T05:11:44;15.60;;;7.63;;
13897;SDS011;7019;50.766;4.474;2022-11-15T05:14:11;11.17;;;8.20;;
13897;SDS011;7019;50.766;4.474;2022-11-15T05:16:39;11.00;;;7.40;;
13897;SDS011;7019;50.766;4.474;2022-11-15T05:19:06;14.70;;;8.30;;
13897;SDS011;7019;50.766;4.474;2022-11-15T05:21:34;14.40;;;8.60;;
13897;SDS011;7019;50.766;4.474;2022-11-15T05:24:01;11.97;;;8.07;;
13897;SDS011;7019;50.766;4.474;2022-11-15T05:26:30;18.20;;;8.80;;
13897;SDS011;7019;50.766;4.474;2022-11-15T05:28:58;10.47;;;8.27;;
13897;SDS011;7019;50.766;4.474;2022-11-15T05:31:26;16.20;;;9.53;;
13897;SDS011;7019;50.766;4.474;2022-11-15T05:33:54;15.50;;;8.50;;
13897;SDS011;7019;50.766;4.474;2022-11-15T05:36:25;22.43;;;9.33;;
13897;SDS011;7019;50.766;4.474;2022-11-15T05:38:57;16.07;;;8.80;;
13897;SDS011;7019;50.766;4.474;2022-11-15T05:41:25;23.23;;;9.70;;
13897;SDS011;7019;50.766;4.474;2022-11-15T05:43:57;14.27;;;8.63;;
13897;SDS011;7019;50.766;4.474;2022-11-15T05:46:26;20.67;;;9.83;;
13897;SDS011;7019;50.766;4.474;2022-11-15T05:48:54;13.30;;;8.80;;
13897;SDS011;7019;50.766;4.474;2022-11-15T05:51:22;14.77;;;8.73;;
13897;SDS011;7019;50.766;4.474;2022-11-15T05:53:50;14.70;;;8.70;;
13897;SDS011;7019;50.766;4.474;2022-11-15T05:56:19;18.97;;;9.40;;
13897;SDS011;7019;50.766;4.474;2022-11-15T05:58:47;16.93;;;9.93;;
13897;SDS011;7019;50.766;4.474;2022-11-15T06:01:15;17.90;;;10.90;;
13897;SDS011;7019;50.766;4.474;2022-11-15T06:03:43;21.30;;;11.10;;
13897;SDS011;7019;50.766;4.474;2022-11-15T06:06:10;18.33;;;10.67;;
13897;SDS011;7019;50.766;4.474;2022-11-15T06:08:37;14.53;;;10.60;;
13897;SDS011;7019;50.766;4.474;2022-11-15T06:11:04;23.47;;;11.17;;
13897;SDS011;7019;50.766;4.474;2022-11-15T06:13:32;17.80;;;10.47;;
13897;SDS011;7019;50.766;4.474;2022-11-15T06:15:59;19.67;;;11.00;;
13897;SDS011;7019;50.766;4.474;2022-11-15T06:18:28;18.03;;;10.60;;
13897;SDS011;7019;50.766;4.474;2022-11-15T06:20:58;15.50;;;9.80;;
13897;SDS011;7019;50.766;4.474;2022-11-15T06:23:25;18.77;;;9.83;;
13897;SDS011;7019;50.766;4.474;2022-11-15T06:25:53;18.80;;;10.23;;
13897;SDS011;7019;50.766;4.474;2022-11-15T06:28:23;14.87;;;10.07;;
13897;SDS011;7019;50.766;4.474;2022-11-15T06:30:50;18.43;;;10.43;;
13897;SDS011;7019;50.766;4.474;2022-11-15T06:33:17;18.90;;;10.30;;
13897;SDS011;7019;50.766;4.474;2022-11-15T06:35:46;16.70;;;9.27;;
13897;SDS011;7019;50.766;4.474;2022-11-15T06:38:13;12.97;;;9.13;;
13897;SDS011;7019;50.766;4.474;2022-11-15T06:40:40;18.13;;;9.47;;
13897;SDS011;7019;50.766;4.474;2022-11-15T06:43:07;17.60;;;9.63;;
13897;SDS011;7019;50.766;4.474;2022-11-15T06:45:34;18.87;;;10.03;;
13897;SDS011;7019;50.766;4.474;2022-11-15T06:48:01;17.77;;;9.13;;
13897;SDS011;7019;50.766;4.474;2022-11-15T06:50:29;19.17;;;9.50;;
13897;SDS011;7019;50.766;4.474;2022-11-15T06:53:01;17.37;;;9.40;;
13897;SDS011;7019;50.766;4.474;2022-11-15T06:55:29;18.07;;;8.30;;
13897;SDS011;7019;50.766;4.474;2022-11-15T06:57:56;18.67;;;7.93;;
13897;SDS011;7019;50.766;4.474;2022-11-15T07:00:23;14.87;;;8.70;;
13897;SDS011;7019;50.766;4.474;2022-11-15T07:02:50;20.17;;;11.03;;
13897;SDS011;7019;50.766;4.474;2022-11-15T07:05:17;17.97;;;10.27;;
13897;SDS011;7019;50.766;4.474;2022-11-15T07:07:50;21.57;;;10.73;;
13897;SDS011;7019;50.766;4.474;2022-11-15T07:10:19;19.73;;;10.83;;
13897;SDS011;7019;50.766;4.474;2022-11-15T07:12:47;21.10;;;10.63;;
13897;SDS011;7019;50.766;4.474;2022-11-15T07:15:14;22.33;;;11.70;;
13897;SDS011;7019;50.766;4.474;2022-11-15T07:17:42;21.43;;;11.20;;
13897;SDS011;7019;50.766;4.474;2022-11-15T07:20:09;22.97;;;13.30;;
13897;SDS011;7019;50.766;4.474;2022-11-15T07:22:38;22.00;;;12.87;;
13897;SDS011;7019;50.766;4.474;2022-11-15T07:25:06;18.20;;;11.30;;
13897;SDS011;7019;50.766;4.474;2022-11-15T07:27:35;19.73;;;11.50;;
13897;SDS011;7019;50.766;4.474;2022-11-15T07:30:02;16.70;;;9.97;;
13897;SDS011;7019;50.766;4.474;2022-11-15T07:32:30;20.80;;;10.73;;
13897;SDS011;7019;50.766;4.474;2022-11-15T07:34:57;16.60;;;10.57;;
13897;SDS011;7019;50.766;4.474;2022-11-15T07:37:24;14.97;;;10.57;;
13897;SDS011;7019;50.766;4.474;2022-11-15T07:39:51;13.77;;;10.27;;
13897;SDS011;7019;50.766;4.474;2022-11-15T07:42:18;19.27;;;9.67;;
13897;SDS011;7019;50.766;4.474;2022-11-15T07:45:05;16.83;;;10.27;;
13897;SDS011;7019;50.766;4.474;2022-11-15T07:47:32;14.27;;;9.80;;
13897;SDS011;7019;50.766;4.474;2022-11-15T07:49:59;17.13;;;10.13;;
13897;SDS011;7019;50.766;4.474;2022-11-15T07:52:26;13.67;;;7.83;;
13897;SDS011;7019;50.766;4.474;2022-11-15T07:54:53;13.27;;;8.47;;
13897;SDS011;7019;50.766;4.474;2022-11-15T07:57:20;9.97;;;7.57;;
13897;SDS011;7019;50.766;4.474;2022-11-15T07:59:47;18.53;;;6.57;;
13897;SDS011;7019;50.766;4.474;2022-11-15T08:02:16;10.17;;;7.10;;
13897;SDS011;7019;50.766;4.474;2022-11-15T08:04:43;9.13;;;5.27;;
13897;SDS011;7019;50.766;4.474;2022-11-15T08:07:10;10.53;;;5.27;;
13897;SDS011;7019;50.766;4.474;2022-11-15T08:09:37;9.50;;;4.70;;
13897;SDS011;7019;50.766;4.474;2022-11-15T08:12:04;9.63;;;4.60;;
13897;SDS011;7019;50.766;4.474;2022-11-15T08:14:32;8.60;;;3.47;;
13897;SDS011;7019;50.766;4.474;2022-11-15T08:16:59;7.07;;;3.83;;
13897;SDS011;7019;50.766;4.474;2022-11-15T08:19:27;8.17;;;3.40;;
13897;SDS011;7019;50.766;4.474;2022-11-15T08:21:54;5.67;;;2.90;;
13897;SDS011;7019;50.766;4.474;2022-11-15T08:24:21;7.83;;;3.27;;
13897;SDS011;7019;50.766;4.474;2022-11-15T08:26:49;6.33;;;4.00;;
13897;SDS011;7019;50.766;4.474;2022-11-15T08:29:16;7.17;;;3.20;;
13897;SDS011;7019;50.766;4.474;2022-11-15T08:31:43;10.13;;;3.53;;
13897;SDS011;7019;50.766;4.474;2022-11-15T08:34:10;6.97;;;3.67;;
13897;SDS011;7019;50.766;4.474;2022-11-15T08:36:39;5.23;;;3.40;;
13897;SDS011;7019;50.766;4.474;2022-11-15T08:39:06;8.10;;;3.23;;
13897;SDS011;7019;50.766;4.474;2022-11-15T08:41:36;6.13;;;2.83;;
13897;SDS011;7019;50.766;4.474;2022-11-15T08:44:04;7.43;;;2.80;;
13897;SDS011;7019;50.766;4.474;2022-11-15T08:46:31;5.93;;;2.90;;
13897;SDS011;7019;50.766;4.474;2022-11-15T08:48:58;6.67;;;2.70;;
13897;SDS011;7019;50.766;4.474;2022-11-15T08:51:25;5.10;;;2.13;;
13897;SDS011;7019;50.766;4.474;2022-11-15T08:53:53;4.73;;;1.87;;
13897;SDS011;7019;50.766;4.474;2022-11-15T08:56:20;4.27;;;1.70;;
13897;SDS011;7019;50.766;4.474;2022-11-15T08:58:47;4.93;;;2.30;;
13897;SDS011;7019;50.766;4.474;2022-11-15T09:01:15;6.03;;;2.13;;
13897;SDS011;7019;50.766;4.474;2022-11-15T09:03:43;4.50;;;1.40;;
13897;SDS011;7019;50.766;4.474;2022-11-15T09:06:11;6.90;;;1.50;;
13897;SDS011;7019;50.766;4.474;2022-11-15T09:08:38;5.00;;;1.63;;
13897;SDS011;7019;50.766;4.474;2022-11-15T09:11:07;6.23;;;1.60;;
13897;SDS011;7019;50.766;4.474;2022-11-15T09:13:36;4.63;;;2.00;;
13897;SDS011;7019;50.766;4.474;2022-11-15T09:16:03;9.73;;;2.10;;
13897;SDS011;7019;50.766;4.474;2022-11-15T09:18:31;5.23;;;1.60;;
13897;SDS011;7019;50.766;4.474;2022-11-15T09:20:59;8.30;;;2.23;;
13897;SDS011;7019;50.766;4.474;2022-11-15T09:23:27;2.83;;;1.20;;
13897;SDS011;7019;50.766;4.474;2022-11-15T09:25:58;3.53;;;1.37;;
13897;SDS011;7019;50.766;4.474;2022-11-15T09:28:27;4.27;;;1.50;;
13897;SDS011;7019;50.766;4.474;2022-11-15T09:30:56;9.47;;;1.90;;
13897;SDS011;7019;50.766;4.474;2022-11-15T09:33:25;4.37;;;1.40;;
13897;SDS011;7019;50.766;4.474;2022-11-15T09:35:53;5.27;;;1.60;;
13897;SDS011;7019;50.766;4.474;2022-11-15T09:38:20;6.07;;;2.07;;
13897;SDS011;7019;50.766;4.474;2022-11-15T09:40:48;6.73;;;1.23;;
13897;SDS011;7019;50.766;4.474;2022-11-15T09:43:29;5.73;;;1.43;;
13897;SDS011;7019;50.766;4.474;2022-11-15T09:46:08;4.43;;;1.10;;
13897;SDS011;7019;50.766;4.474;2022-11-15T09:48:47;7.17;;;1.80;;
13897;SDS011;7019;50.766;4.474;2022-11-15T09:51:24;4.60;;;1.40;;
13897;SDS011;7019;50.766;4.474;2022-11-15T09:54:00;4.97;;;1.53;;
13897;SDS011;7019;50.766;4.474;2022-11-15T09:56:36;2.90;;;1.23;;
13897;SDS011;7019;50.766;4.474;2022-11-15T09:59:21;10.23;;;1.73;;
13897;SDS011;7019;50.766;4.474;2022-11-15T10:01:56;6.63;;;1.60;;
13897;SDS011;7019;50.766;4.474;2022-11-15T10:04:31;4.33;;;1.30;;
13897;SDS011;7019;50.766;4.474;2022-11-15T10:07:02;7.37;;;1.23;;
13897;SDS011;7019;50.766;4.474;2022-11-15T10:09:41;7.13;;;1.47;;
13897;SDS011;7019;50.766;4.474;2022-11-15T10:12:11;3.63;;;1.20;;
13897;SDS011;7019;50.766;4.474;2022-11-15T10:14:41;3.90;;;1.20;;
13897;SDS011;7019;50.766;4.474;2022-11-15T10:17:21;3.97;;;1.17;;
13897;SDS011;7019;50.766;4.474;2022-11-15T10:20:02;4.87;;;1.10;;
13897;SDS011;7019;50.766;4.474;2022-11-15T10:22:38;6.63;;;1.37;;
13897;SDS011;7019;50.766;4.474;2022-11-15T10:25:10;8.20;;;1.00;;
13897;SDS011;7019;50.766;4.474;2022-11-15T10:27:44;5.60;;;1.50;;
13897;SDS011;7019;50.766;4.474;2022-11-15T10:30:18;4.83;;;1.00;;
13897;SDS011;7019;50.766;4.474;2022-11-15T10:32:50;3.33;;;0.97;;
13897;SDS011;7019;50.766;4.474;2022-11-15T10:35:22;6.60;;;0.97;;
13897;SDS011;7019;50.766;4.474;2022-11-15T10:37:50;7.90;;;2.17;;
13897;SDS011;7019;50.766;4.474;2022-11-15T10:40:18;5.23;;;1.20;;
13897;SDS011;7019;50.766;4.474;2022-11-15T10:42:47;3.83;;;1.10;;
13897;SDS011;7019;50.766;4.474;2022-11-15T10:45:25;6.53;;;2.17;;
13897;SDS011;7019;50.766;4.474;2022-11-15T10:47:54;4.87;;;1.00;;
13897;SDS011;7019;50.766;4.474;2022-11-15T10:50:51;6.93;;;1.67;;
13897;SDS011;7019;50.766;4.474;2022-11-15T10:53:30;11.97;;;1.53;;
13897;SDS011;7019;50.766;4.474;2022-11-15T10:56:00;8.67;;;2.90;;
13897;SDS011;7019;50.766;4.474;2022-11-15T10:58:32;5.83;;;1.40;;
13897;SDS011;7019;50.766;4.474;2022-11-15T11:01:15;6.03;;;1.30;;
13897;SDS011;7019;50.766;4.474;2022-11-15T11:03:44;5.17;;;1.43;;
13897;SDS011;7019;50.766;4.474;2022-11-15T11:06:24;4.07;;;1.00;;
13897;SDS011;7019;50.766;4.474;2022-11-15T11:08:55;6.93;;;1.23;;
13897;SDS011;7019;50.766;4.474;2022-11-15T11:11:23;5.17;;;0.90;;
13897;SDS011;7019;50.766;4.474;2022-11-15T11:13:51;5.03;;;1.30;;
13897;SDS011;7019;50.766;4.474;2022-11-15T11:16:22;5.20;;;1.20;;
13897;SDS011;7019;50.766;4.474;2022-11-15T11:19:02;5.23;;;1.63;;
13897;SDS011;7019;50.766;4.474;2022-11-15T11:21:40;3.30;;;0.80;;
13897;SDS011;7019;50.766;4.474;2022-11-15T11:24:15;5.50;;;1.10;;
13897;SDS011;7019;50.766;4.474;2022-11-15T11:26:55;3.17;;;0.87;;
13897;SDS011;7019;50.766;4.474;2022-11-15T11:29:41;4.97;;;0.70;;
13897;SDS011;7019;50.766;4.474;2022-11-15T11:32:22;2.83;;;0.87;;
13897;SDS011;7019;50.766;4.474;2022-11-15T11:35:01;5.50;;;0.70;;
13897;SDS011;7019;50.766;4.474;2022-11-15T11:37:36;5.80;;;1.27;;
13897;SDS011;7019;50.766;4.474;2022-11-15T11:40:19;7.27;;;1.17;;
13897;SDS011;7019;50.766;4.474;2022-11-15T11:42:55;4.20;;;1.10;;
13897;SDS011;7019;50.766;4.474;2022-11-15T11:45:36;4.30;;;0.90;;
13897;SDS011;7019;50.766;4.474;2022-11-15T11:48:19;7.53;;;1.33;;
13897;SDS011;7019;50.766;4.474;2022-11-15T11:50:53;8.23;;;1.10;;
13897;SDS011;7019;50.766;4.474;2022-11-15T11:53:34;152.77;;;16.17;;
13897;SDS011;7019;50.766;4.474;2022-11-15T11:56:13;21.87;;;3.10;;
13897;SDS011;7019;50.766;4.474;2022-11-15T11:58:47;3.40;;;1.20;;
13897;SDS011;7019;50.766;4.474;2022-11-15T12:01:18;3.57;;;0.97;;
13897;SDS011;7019;50.766;4.474;2022-11-15T12:03:51;5.93;;;1.23;;
13897;SDS011;7019;50.766;4.474;2022-11-15T12:06:23;5.07;;;1.00;;
13897;SDS011;7019;50.766;4.474;2022-11-15T12:09:01;4.10;;;1.50;;
13897;SDS011;7019;50.766;4.474;2022-11-15T12:11:35;2.13;;;0.80;;
13897;SDS011;7019;50.766;4.474;2022-11-15T12:14:12;6.77;;;1.10;;
13897;SDS011;7019;50.766;4.474;2022-11-15T12:16:50;3.70;;;0.63;;
13897;SDS011;7019;50.766;4.474;2022-11-15T12:19:18;2.83;;;0.87;;
13897;SDS011;7019;50.766;4.474;2022-11-15T12:21:47;4.93;;;1.00;;
13897;SDS011;7019;50.766;4.474;2022-11-15T12:24:20;3.43;;;0.90;;
13897;SDS011;7019;50.766;4.474;2022-11-15T12:26:52;7.20;;;1.47;;
13897;SDS011;7019;50.766;4.474;2022-11-15T12:29:25;6.27;;;1.40;;
13897;SDS011;7019;50.766;4.474;2022-11-15T12:31:57;9.03;;;1.20;;
13897;SDS011;7019;50.766;4.474;2022-11-15T12:37:34;4.10;;;0.90;;
13897;SDS011;7019;50.766;4.474;2022-11-15T12:40:27;4.60;;;1.07;;
13897;SDS011;7019;50.766;4.474;2022-11-15T12:43:03;4.27;;;1.17;;
13897;SDS011;7019;50.766;4.474;2022-11-15T12:45:45;4.33;;;1.47;;
13897;SDS011;7019;50.766;4.474;2022-11-15T12:51:14;3.80;;;1.13;;
13897;SDS011;7019;50.766;4.474;2022-11-15T12:53:41;3.70;;;1.30;;
13897;SDS011;7019;50.766;4.474;2022-11-15T12:56:18;4.13;;;1.40;;
13897;SDS011;7019;50.766;4.474;2022-11-15T12:58:48;2.03;;;0.80;;
13897;SDS011;7019;50.766;4.474;2022-11-15T13:04:23;3.37;;;1.00;;
13897;SDS011;7019;50.766;4.474;2022-11-15T13:06:54;3.33;;;0.90;;
13897;SDS011;7019;50.766;4.474;2022-11-15T13:12:49;5.83;;;1.17;;
13897;SDS011;7019;50.766;4.474;2022-11-15T13:18:26;4.83;;;1.10;;
13897;SDS011;7019;50.766;4.474;2022-11-15T13:21:04;2.80;;;1.10;;
13897;SDS011;7019;50.766;4.474;2022-11-15T13:24:04;4.00;;;0.93;;
13897;SDS011;7019;50.766;4.474;2022-11-15T13:26:38;2.60;;;1.17;;
13897;SDS011;7019;50.766;4.474;2022-11-15T13:29:13;2.10;;;0.80;;
13897;SDS011;7019;50.766;4.474;2022-11-15T13:31:43;3.47;;;1.00;;
13897;SDS011;7019;50.766;4.474;2022-11-15T13:34:16;10.50;;;1.63;;
13897;SDS011;7019;50.766;4.474;2022-11-15T13:36:49;3.97;;;1.23;;
13897;SDS011;7019;50.766;4.474;2022-11-15T13:39:25;2.43;;;1.00;;
13897;SDS011;7019;50.766;4.474;2022-11-15T13:41:54;2.20;;;0.80;;
13897;SDS011;7019;50.766;4.474;2022-11-15T13:44:22;7.40;;;1.27;;
13897;SDS011;7019;50.766;4.474;2022-11-15T13:47:00;4.30;;;0.77;;
13897;SDS011;7019;50.766;4.474;2022-11-15T13:49:30;3.27;;;0.80;;
13897;SDS011;7019;50.766;4.474;2022-11-15T13:51:59;4.30;;;1.10;;
13897;SDS011;7019;50.766;4.474;2022-11-15T13:54:30;5.10;;;1.00;;
13897;SDS011;7019;50.766;4.474;2022-11-15T13:57:01;7.40;;;1.30;;
13897;SDS011;7019;50.766;4.474;2022-11-15T13:59:31;7.10;;;1.10;;
13897;SDS011;7019;50.766;4.474;2022-11-15T14:02:02;2.27;;;1.00;;
13897;SDS011;7019;50.766;4.474;2022-11-15T14:04:38;6.40;;;1.40;;
13897;SDS011;7019;50.766;4.474;2022-11-15T14:07:14;16.53;;;2.63;;
13897;SDS011;7019;50.766;4.474;2022-11-15T14:09:46;5.03;;;1.17;;
13897;SDS011;7019;50.766;4.474;2022-11-15T14:12:29;6.07;;;1.20;;
13897;SDS011;7019;50.766;4.474;2022-11-15T14:14:58;2.03;;;0.93;;
13897;SDS011;7019;50.766;4.474;2022-11-15T14:17:34;2.73;;;1.30;;
13897;SDS011;7019;50.766;4.474;2022-11-15T14:20:02;6.23;;;1.07;;
13897;SDS011;7019;50.766;4.474;2022-11-15T14:22:53;3.70;;;1.20;;
13897;SDS011;7019;50.766;4.474;2022-11-15T14:25:22;5.67;;;0.93;;
13897;SDS011;7019;50.766;4.474;2022-11-15T14:28:13;2.23;;;1.00;;
13897;SDS011;7019;50.766;4.474;2022-11-15T14:30:42;2.33;;;0.90;;
13897;SDS011;7019;50.766;4.474;2022-11-15T14:33:19;5.77;;;1.40;;
13897;SDS011;7019;50.766;4.474;2022-11-15T14:35:48;1.97;;;1.03;;
13897;SDS011;7019;50.766;4.474;2022-11-15T14:38:16;2.30;;;1.50;;
13897;SDS011;7019;50.766;4.474;2022-11-15T14:40:44;2.00;;;1.40;;
13897;SDS011;7019;50.766;4.474;2022-11-15T14:43:12;4.50;;;1.63;;
13897;SDS011;7019;50.766;4.474;2022-11-15T14:45:39;3.10;;;0.93;;
13897;SDS011;7019;50.766;4.474;2022-11-15T14:48:06;6.50;;;1.30;;
13897;SDS011;7019;50.766;4.474;2022-11-15T14:50:34;4.10;;;1.10;;
13897;SDS011;7019;50.766;4.474;2022-11-15T14:53:02;4.30;;;1.20;;
13897;SDS011;7019;50.766;4.474;2022-11-15T14:55:30;3.90;;;1.40;;
13897;SDS011;7019;50.766;4.474;2022-11-15T14:58:01;5.50;;;1.90;;
13897;SDS011;7019;50.766;4.474;2022-11-15T15:00:29;3.73;;;1.27;;
13897;SDS011;7019;50.766;4.474;2022-11-15T15:02:56;2.57;;;1.17;;
13897;SDS011;7019;50.766;4.474;2022-11-15T15:05:24;2.03;;;1.20;;
13897;SDS011;7019;50.766;4.474;2022-11-15T15:07:55;2.57;;;1.10;;
13897;SDS011;7019;50.766;4.474;2022-11-15T15:10:30;1.70;;;1.40;;
13897;SDS011;7019;50.766;4.474;2022-11-15T15:12:58;5.13;;;1.23;;
13897;SDS011;7019;50.766;4.474;2022-11-15T15:15:29;2.03;;;1.30;;
13897;SDS011;7019;50.766;4.474;2022-11-15T15:18:00;2.00;;;1.30;;
13897;SDS011;7019;50.766;4.474;2022-11-15T15:20:27;4.10;;;1.30;;
13897;SDS011;7019;50.766;4.474;2022-11-15T15:22:55;4.17;;;1.40;;
13897;SDS011;7019;50.766;4.474;2022-11-15T15:25:23;3.83;;;1.50;;
13897;SDS011;7019;50.766;4.474;2022-11-15T15:27:53;2.10;;;1.23;;
13897;SDS011;7019;50.766;4.474;2022-11-15T15:30:21;1.70;;;1.13;;